Time;durP1;ratioP1;P1;durP2;ratioP2;P2;SDS_P1;SDS_P2;PMS_P1;PMS_P2;Temp;Humidity;BMP_temperature;BMP_pressure;BME280_temperature;BME280_humidity;BME280_pressure;Samples;Min_cycle;Max_cycle;Signal;HPM_P1;HPM_P2
2022/03/13 00:00:10;;;;;;;16.13;14.37;;;12.50;84.30;;;13.30;42.31;101218.69;4885534;28;97496;-55
2022/03/13 00:02:36;;;;;;;15.30;12.93;;;12.50;84.50;;;13.26;42.40;101209.16;4868839;28;98871;-52
2022/03/13 00:05:04;;;;;;;18.50;14.13;;;12.40;84.30;;;13.27;42.61;101205.56;4882181;28;98573;-54
2022/03/13 00:07:31;;;;;;;14.90;13.30;;;12.40;84.90;;;13.23;42.89;101198.69;4886507;28;97443;-55
2022/03/13 00:09:58;;;;;;;16.90;14.10;;;12.40;85.40;;;13.26;42.46;101195.91;4881687;28;97961;-54
2022/03/13 00:12:27;;;;;;;17.07;13.50;;;12.40;84.60;;;13.18;42.36;101195.34;4885902;28;97729;-55
2022/03/13 00:14:56;;;;;;;16.80;13.97;;;12.40;83.90;;;13.13;42.28;101202.56;4884218;28;96964;-59
2022/03/13 00:17:27;;;;;;;15.67;12.83;;;12.30;84.50;;;13.16;42.23;101197.13;4866965;28;101823;-54
2022/03/13 00:19:56;;;;;;;16.07;12.90;;;12.30;84.30;;;13.15;41.96;101205.13;4870462;28;97257;-62
2022/03/13 00:22:22;;;;;;;19.23;15.43;;;12.30;82.80;;;13.07;42.01;101208.09;4885179;28;99433;-54
2022/03/13 00:25:03;;;;;;;17.30;13.93;;;12.30;84.70;;;13.09;42.64;101200.94;4878476;28;96736;-54
2022/03/13 00:27:31;;;;;;;15.40;13.47;;;12.30;84.10;;;13.07;42.88;101200.16;4865514;28;102728;-51
2022/03/13 00:29:58;;;;;;;16.57;13.97;;;12.30;85.00;;;13.01;42.77;101208.28;4883852;28;98386;-56
2022/03/13 00:32:24;;;;;;;14.47;12.97;;;12.20;84.50;;;12.99;42.93;101204.84;4881402;28;98224;-54
2022/03/13 00:34:49;;;;;;;17.00;13.47;;;12.20;85.00;;;12.90;42.89;101205.22;4885896;28;98567;-54
2022/03/13 00:37:17;;;;;;;14.83;12.50;;;12.10;85.30;;;12.84;43.37;101200.97;4884285;28;97529;-50
2022/03/13 00:39:44;;;;;;;14.43;12.50;;;12.00;86.30;;;12.85;43.36;101192.13;4887217;28;97018;-53
2022/03/13 00:42:13;;;;;;;12.50;11.20;;;12.00;86.30;;;12.90;43.26;101190.19;4881815;28;97526;-54
2022/03/13 00:44:39;;;;;;;15.67;13.00;;;12.00;86.50;;;13.00;43.09;101190.69;4878681;28;97468;-54
2022/03/13 00:47:05;;;;;;;17.50;12.90;;;12.10;85.60;;;13.03;42.68;101185.28;4882665;28;97263;-52
2022/03/13 00:49:32;;;;;;;14.87;13.27;;;12.20;85.40;;;13.10;42.53;101189.44;4888451;28;96763;-54
2022/03/13 00:52:01;;;;;;;10.50;9.40;;;12.20;83.50;;;13.22;42.23;101182.84;4881253;28;96879;-51
2022/03/13 00:54:31;;;;;;;14.37;12.30;;;12.40;83.10;;;13.26;42.21;101181.78;4878620;28;96994;-53
2022/03/13 00:57:03;;;;;;;17.00;12.50;;;12.40;82.50;;;13.24;41.61;101181.84;4872280;28;98067;-54
2022/03/13 00:59:34;;;;;;;15.20;12.53;;;12.40;82.80;;;13.25;41.93;101175.63;4864382;28;97132;-52
2022/03/13 01:02:05;;;;;;;12.63;11.33;;;12.40;82.90;;;13.32;41.79;101174.50;4884453;28;97153;-51
2022/03/13 01:04:31;;;;;;;12.33;9.60;;;12.40;83.20;;;13.42;42.11;101168.81;4883953;28;97682;-54
2022/03/13 01:06:57;;;;;;;14.97;10.97;;;12.60;82.40;;;13.49;41.45;101172.97;4883779;28;97200;-51
2022/03/13 01:09:22;;;;;;;13.27;11.10;;;12.70;80.50;;;13.56;41.41;101163.81;4885571;28;102868;-53
2022/03/13 01:11:48;;;;;;;11.97;9.37;;;12.80;79.30;;;13.65;41.34;101161.69;4885164;28;98125;-50
2022/03/13 01:14:20;;;;;;;6.93;5.97;;;12.80;79.10;;;13.79;41.11;101155.81;4883176;28;97353;-50
2022/03/13 01:16:47;;;;;;;6.87;6.13;;;13.10;79.60;;;13.89;40.86;101156.31;4889223;28;97953;-53
2022/03/13 01:19:13;;;;;;;5.73;5.00;;;13.20;78.60;;;14.03;40.64;101145.09;4878587;28;96919;-51
2022/03/13 01:21:42;;;;;;;6.73;6.03;;;13.40;82.10;;;14.27;40.35;101142.28;4883691;28;97732;-51
2022/03/13 01:24:13;;;;;;;5.57;5.07;;;13.80;80.60;;;14.46;39.59;101129.09;4862151;28;97448;-52
2022/03/13 01:26:41;;;;;;;6.00;5.40;;;14.20;75.90;;;14.66;39.39;101132.66;4886026;28;98708;-50
2022/03/13 01:29:14;;;;;;;7.73;6.93;;;14.40;78.30;;;14.87;39.01;101129.00;4882055;28;97574;-52
2022/03/13 01:31:47;;;;;;;6.33;5.73;;;14.70;77.50;;;14.98;38.58;101129.38;4884859;28;97227;-53
2022/03/13 01:34:41;;;;;;;6.43;5.83;;;14.80;75.60;;;15.12;38.48;101142.88;4883219;28;98972;-52
2022/03/13 01:37:15;;;;;;;9.00;7.17;;;14.90;76.00;;;15.22;38.16;101131.84;4879013;28;98408;-50
2022/03/13 01:39:42;;;;;;;6.40;5.80;;;15.10;72.60;;;15.35;37.86;101125.00;4885195;28;97607;-54
2022/03/13 01:42:09;;;;;;;10.00;7.60;;;15.20;75.50;;;15.40;37.25;101122.97;4880992;28;99361;-54
2022/03/13 01:44:34;;;;;;;6.03;5.10;;;15.30;68.90;;;15.42;37.73;101118.44;4861398;28;97560;-57
2022/03/13 01:47:09;;;;;;;8.93;7.70;;;15.20;73.70;;;15.43;37.63;101117.50;4844725;28;99971;-57
2022/03/13 01:49:35;;;;;;;11.67;10.47;;;15.20;70.30;;;15.34;36.32;101115.31;4862699;28;97685;-56
2022/03/13 01:52:02;;;;;;;11.60;10.40;;;15.00;68.70;;;15.27;37.29;101113.88;4861358;28;98431;-51
2022/03/13 01:54:30;;;;;;;10.60;9.30;;;14.80;68.20;;;15.13;37.65;101112.72;4882448;28;98409;-53
2022/03/13 01:56:57;;;;;;;9.40;7.67;;;14.50;69.50;;;15.09;38.08;101111.16;4864345;28;96864;-54
2022/03/13 01:59:23;;;;;;;6.03;5.43;;;14.50;73.10;;;15.04;38.39;101107.84;4867305;28;97726;-56
2022/03/13 02:01:49;;;;;;;7.27;6.47;;;14.40;73.50;;;14.98;38.37;101107.28;4884932;28;97131;-55
2022/03/13 02:04:25;;;;;;;10.60;7.73;;;14.30;71.10;;;14.91;38.09;101095.22;4880794;28;97694;-56
2022/03/13 02:06:55;;;;;;;11.30;9.23;;;14.20;68.60;;;14.75;38.50;101097.69;4886016;28;97507;-51
2022/03/13 02:09:21;;;;;;;6.87;6.10;;;14.00;70.70;;;14.75;38.82;101095.06;4865917;28;99831;-54
2022/03/13 02:11:47;;;;;;;5.10;4.60;;;14.00;74.60;;;14.80;38.55;101093.06;4886290;28;97237;-53
2022/03/13 02:14:17;;;;;;;6.60;5.90;;;14.10;76.70;;;14.92;38.41;101088.97;4883165;28;96834;-57
2022/03/13 02:16:44;;;;;;;9.10;8.20;;;14.40;74.60;;;14.98;38.01;101088.69;4887408;28;97435;-54
2022/03/13 02:19:10;;;;;;;5.03;4.60;;;14.60;71.90;;;14.99;38.26;101088.59;4867202;28;98012;-55
2022/03/13 02:21:44;;;;;;;10.83;8.57;;;14.60;72.80;;;15.14;37.28;101092.34;4885089;28;96818;-55
2022/03/13 02:24:24;;;;;;;7.40;6.60;;;14.80;72.20;;;15.27;37.36;101088.16;4883234;28;97342;-56
2022/03/13 02:27:00;;;;;;;6.20;4.90;;;15.00;70.40;;;15.30;37.72;101085.34;4883584;28;97540;-55
2022/03/13 02:29:27;;;;;;;9.23;8.30;;;15.00;71.80;;;15.25;36.78;101083.84;4866175;28;103242;-56
2022/03/13 02:31:54;;;;;;;6.73;5.47;;;14.90;69.10;;;15.29;37.43;101086.28;4876696;28;97155;-59
2022/03/13 02:34:28;;;;;;;8.87;6.83;;;14.90;72.50;;;15.34;37.08;101075.44;4872305;28;97926;-56
2022/03/13 02:37:01;;;;;;;9.00;8.13;;;15.00;68.50;;;15.37;37.21;101077.94;4852573;28;98877;-58
2022/03/13 02:39:29;;;;;;;5.63;5.13;;;15.10;70.90;;;15.39;37.21;101070.75;4882509;28;99856;-51
2022/03/13 02:41:55;;;;;;;5.33;4.70;;;15.10;72.10;;;15.46;37.08;101072.16;4881633;28;97729;-59
2022/03/13 02:44:20;;;;;;;5.23;4.73;;;15.30;72.80;;;15.51;37.02;101070.16;4885159;28;97741;-54
2022/03/13 02:46:46;;;;;;;5.30;4.80;;;15.30;72.90;;;15.57;36.88;101067.19;4884854;28;97666;-56
2022/03/13 02:49:17;;;;;;;5.43;4.93;;;15.40;70.80;;;15.56;36.58;101062.81;4882282;28;97048;-50
2022/03/13 02:51:44;;;;;;;7.90;7.10;;;15.40;68.60;;;15.58;35.21;101066.25;4886362;28;98537;-56
2022/03/13 02:54:11;;;;;;;7.23;5.80;;;15.40;66.20;;;15.56;37.09;101065.47;4868562;28;97245;-53
2022/03/13 02:56:37;;;;;;;6.30;5.70;;;15.30;70.60;;;15.56;37.00;101060.16;4870995;28;98055;-52
2022/03/13 02:59:03;;;;;;;4.60;4.20;;;15.30;70.40;;;15.60;36.75;101053.75;4880475;28;97614;-54
2022/03/13 03:01:29;;;;;;;4.37;3.97;;;15.40;71.20;;;15.65;36.77;101051.75;4870330;28;97483;-56
2022/03/13 03:04:01;;;;;;;6.50;5.87;;;15.50;72.20;;;15.73;36.31;101049.53;4882713;28;121115;-54
2022/03/13 03:06:32;;;;;;;5.70;5.10;;;15.60;69.50;;;15.73;36.66;101054.88;4887949;28;102352;-52
2022/03/13 03:09:03;;;;;;;4.87;4.43;;;15.60;69.50;;;15.76;36.83;101049.38;4883883;28;97121;-52
2022/03/13 03:11:32;;;;;;;4.53;4.13;;;15.60;72.10;;;15.76;36.35;101046.72;4865229;28;98127;-55
2022/03/13 03:14:03;;;;;;;6.10;5.50;;;15.60;71.20;;;15.75;36.58;101047.66;4885154;28;97930;-54
2022/03/13 03:16:32;;;;;;;6.67;5.87;;;15.60;68.30;;;15.77;36.21;101051.13;4882308;28;97481;-55
2022/03/13 03:18:59;;;;;;;5.27;4.77;;;15.60;69.70;;;15.80;36.38;101041.28;4871561;28;101412;-56
2022/03/13 03:21:25;;;;;;;6.43;5.83;;;15.70;70.40;;;15.84;36.42;101045.47;4886634;28;101396;-57
2022/03/13 03:23:51;;;;;;;5.07;4.57;;;15.70;70.70;;;15.86;36.21;101041.81;4870414;28;98061;-57
2022/03/13 03:26:17;;;;;;;4.60;4.20;;;15.80;71.60;;;15.90;36.41;101045.16;4883157;28;98535;-56
2022/03/13 03:28:43;;;;;;;4.57;4.17;;;15.80;70.50;;;15.97;36.17;101035.94;4887745;28;98861;-54
2022/03/13 03:31:09;;;;;;;6.03;5.40;;;15.90;70.60;;;15.96;35.58;101036.88;4883043;28;112988;-55
2022/03/13 03:33:36;;;;;;;7.13;6.43;;;15.90;67.90;;;15.96;35.33;101040.41;4862146;28;98694;-55
2022/03/13 03:36:02;;;;;;;7.20;6.50;;;15.90;66.80;;;15.96;35.89;101044.84;4832184;28;100764;-52
2022/03/13 03:38:28;;;;;;;9.30;8.33;;;15.90;70.30;;;15.91;35.61;101041.56;4887079;28;97305;-52
2022/03/13 03:40:54;;;;;;;5.80;5.20;;;15.80;64.90;;;15.89;36.01;101038.13;4885195;28;97278;-58
2022/03/13 03:43:20;;;;;;;10.47;8.03;;;15.70;66.90;;;15.82;34.01;101047.38;4887017;28;98129;-57
2022/03/13 03:45:45;;;;;;;7.40;6.53;;;15.60;61.50;;;15.80;35.49;101043.94;4885902;28;99501;-57
2022/03/13 03:48:11;;;;;;;4.90;4.40;;;15.60;64.80;;;15.75;36.14;101042.34;4884319;28;109095;-56
2022/03/13 03:50:37;;;;;;;7.53;6.40;;;15.50;69.60;;;15.75;36.13;101052.13;4887378;28;98517;-53
2022/03/13 03:53:03;;;;;;;12.27;9.67;;;15.50;68.30;;;15.61;33.77;101055.47;4868552;28;99005;-52
2022/03/13 03:55:31;;;;;;;11.70;10.10;;;15.20;57.70;;;15.34;31.06;101056.84;4871369;28;99508;-52
2022/03/13 03:57:57;;;;;;;12.50;10.87;;;14.70;58.50;;;15.10;33.54;101053.56;4883953;28;97455;-53
2022/03/13 04:00:26;;;;;;;8.47;7.03;;;14.30;61.20;;;14.94;36.70;101058.75;4885294;28;97371;-55
2022/03/13 04:02:53;;;;;;;12.87;10.80;;;14.10;64.50;;;14.64;35.16;101060.19;4888216;28;98435;-53
2022/03/13 04:05:20;;;;;;;12.40;10.67;;;13.70;64.50;;;14.40;35.30;101057.69;4882353;28;102216;-56
2022/03/13 04:07:46;;;;;;;9.63;8.37;;;13.40;63.60;;;14.19;35.38;101063.97;4888707;28;98043;-53
2022/03/13 04:10:12;;;;;;;11.57;9.97;;;13.20;65.40;;;14.08;35.50;101056.47;4881063;28;97322;-56
2022/03/13 04:12:39;;;;;;;11.43;9.87;;;13.10;64.80;;;13.95;36.16;101053.47;4887111;28;98556;-52
2022/03/13 04:15:07;;;;;;;11.80;10.40;;;13.00;65.70;;;13.78;36.33;101053.34;4882621;28;97899;-56
2022/03/13 04:17:37;;;;;;;13.07;9.57;;;12.80;66.80;;;13.64;37.57;101058.38;4885516;28;99390;-52
2022/03/13 04:20:06;;;;;;;12.57;9.93;;;12.60;68.30;;;13.52;37.76;101064.16;4881790;28;97366;-54
2022/03/13 04:22:32;;;;;;;11.47;10.23;;;12.50;68.40;;;13.35;37.20;101056.91;4884042;28;97253;-51
2022/03/13 04:24:58;;;;;;;13.70;10.60;;;12.30;67.90;;;13.15;37.43;101057.66;4882898;28;97950;-51
2022/03/13 04:27:24;;;;;;;13.93;10.57;;;12.10;68.70;;;13.02;36.89;101067.91;4884675;28;126377;-51
2022/03/13 04:29:50;;;;;;;12.27;10.13;;;12.00;69.10;;;12.87;36.86;101065.84;4884892;28;102846;-52
2022/03/13 04:32:22;;;;;;;14.33;10.90;;;11.90;68.60;;;12.78;37.87;101071.50;4867199;28;97450;-55
2022/03/13 04:34:48;;;;;;;13.30;10.10;;;11.80;70.00;;;12.74;38.11;101068.13;4887644;28;98970;-56
2022/03/13 04:37:18;;;;;;;15.83;11.67;;;11.80;69.10;;;12.74;39.45;101070.75;4881701;28;97029;-50
2022/03/13 04:39:44;;;;;;;17.53;11.20;;;11.80;70.00;;;12.70;38.98;101066.47;4885769;28;98045;-56
2022/03/13 04:42:09;;;;;;;13.57;10.90;;;11.80;70.50;;;12.69;38.88;101059.47;4881804;28;113319;-56
2022/03/13 04:44:35;;;;;;;12.77;10.00;;;11.80;70.40;;;12.67;40.02;101058.66;4887479;28;98606;-53
2022/03/13 04:47:04;;;;;;;7.50;6.40;;;11.70;71.90;;;12.73;40.92;101055.81;4880829;28;121928;-52
2022/03/13 04:49:30;;;;;;;7.00;6.27;;;11.80;72.80;;;12.93;40.93;101040.91;4869365;28;97563;-55
2022/03/13 04:51:56;;;;;;;8.43;7.23;;;12.10;72.30;;;13.08;40.71;101040.31;4874107;28;98527;-54
2022/03/13 04:54:22;;;;;;;9.47;7.53;;;12.30;77.80;;;13.23;39.16;101047.69;4885570;28;98864;-52
2022/03/13 04:56:48;;;;;;;9.30;5.47;;;12.50;67.50;;;13.39;40.03;101037.31;4883533;28;97302;-56
2022/03/13 04:59:13;;;;;;;6.77;5.33;;;12.70;73.90;;;13.53;39.52;101042.03;4880182;28;116407;-54
2022/03/13 05:01:40;;;;;;;6.17;5.00;;;12.90;69.00;;;13.76;39.59;101044.59;4885007;28;126447;-54
2022/03/13 05:04:11;;;;;;;9.27;8.20;;;13.20;77.60;;;13.93;38.74;101052.69;4875995;28;97784;-54
2022/03/13 05:06:45;;;;;;;6.07;5.07;;;13.50;67.40;;;14.10;38.91;101051.09;4883704;28;100824;-54
2022/03/13 05:09:13;;;;;;;8.97;8.07;;;13.60;72.80;;;14.18;37.23;101041.88;4870099;28;98889;-55
2022/03/13 05:11:39;;;;;;;5.83;5.23;;;13.70;66.00;;;14.27;37.85;101051.19;4874984;28;99862;-56
2022/03/13 05:14:04;;;;;;;5.30;4.80;;;13.80;66.40;;;14.37;37.86;101047.22;4881739;28;99963;-55
2022/03/13 05:16:31;;;;;;;4.93;4.43;;;13.90;70.40;;;14.50;37.90;101048.41;4881841;28;125081;-53
2022/03/13 05:18:58;;;;;;;7.67;6.80;;;14.10;71.80;;;14.56;37.13;101040.16;4881908;28;98208;-53
2022/03/13 05:21:24;;;;;;;5.07;4.60;;;14.20;64.70;;;14.67;37.10;101050.28;4898062;28;97305;-57
2022/03/13 05:23:50;;;;;;;7.73;6.80;;;14.30;69.10;;;14.72;36.95;101042.09;4887349;28;97107;-53
2022/03/13 05:26:16;;;;;;;6.70;5.53;;;14.30;66.00;;;14.80;37.24;101039.94;4883763;28;127497;-55
2022/03/13 05:28:42;;;;;;;4.60;4.10;;;14.40;69.20;;;14.87;37.34;101041.38;4898009;28;96872;-57
2022/03/13 05:31:08;;;;;;;8.17;7.37;;;14.50;70.20;;;14.93;35.72;101048.22;4880012;28;107773;-52
2022/03/13 05:33:34;;;;;;;8.00;6.90;;;14.60;65.30;;;15.02;36.97;101045.94;4889420;28;97255;-52
2022/03/13 05:36:00;;;;;;;7.00;5.30;;;14.70;69.40;;;15.10;36.60;101033.16;4890121;28;99146;-52
2022/03/13 05:38:26;;;;;;;8.70;6.63;;;14.90;66.10;;;15.12;32.86;101041.06;4883733;28;96604;-54
2022/03/13 05:40:53;;;;;;;7.33;6.07;;;14.80;62.20;;;15.08;36.13;101040.38;4900374;28;96601;-51
2022/03/13 05:43:22;;;;;;;6.30;5.70;;;14.70;59.50;;;15.08;36.16;101040.38;4895928;28;101977;-54
2022/03/13 05:45:48;;;;;;;8.53;7.27;;;14.70;65.30;;;15.10;36.51;101038.50;4892720;28;98237;-52
2022/03/13 05:48:18;;;;;;;4.57;4.03;;;14.70;67.30;;;15.12;36.30;101036.63;4886984;28;97350;-56
2022/03/13 05:50:46;;;;;;;5.17;4.67;;;14.80;67.00;;;15.13;36.59;101041.00;4891639;28;97797;-54
2022/03/13 05:53:16;;;;;;;9.23;8.17;;;14.70;65.70;;;15.10;35.07;101049.13;4877151;28;97609;-53
2022/03/13 05:55:42;;;;;;;5.07;4.57;;;14.70;58.50;;;15.09;36.82;101052.72;4899050;28;99548;-52
2022/03/13 05:58:12;;;;;;;4.93;4.40;;;14.60;71.50;;;15.09;36.73;101051.84;4888616;28;97270;-51
2022/03/13 06:00:39;;;;;;;12.37;8.10;;;14.60;67.00;;;15.01;35.81;101054.00;4878762;28;97285;-55
2022/03/13 06:03:06;;;;;;;8.07;6.73;;;14.50;59.10;;;14.97;35.41;101053.28;4887727;28;97448;-55
2022/03/13 06:05:37;;;;;;;9.80;8.47;;;14.40;62.70;;;14.87;30.63;101057.31;4896666;28;98163;-56
2022/03/13 06:08:03;;;;;;;11.77;9.10;;;14.30;58.80;;;14.81;33.53;101062.91;4892905;28;97115;-54
2022/03/13 06:10:29;;;;;;;10.43;9.33;;;14.10;58.40;;;14.67;32.83;101071.53;4895357;28;100608;-55
2022/03/13 06:12:59;;;;;;;10.20;8.67;;;14.00;58.40;;;14.57;34.75;101060.44;4887539;28;97396;-55
2022/03/13 06:15:25;;;;;;;11.03;9.20;;;13.80;59.60;;;14.38;33.52;101064.84;4893860;28;98507;-50
2022/03/13 06:17:51;;;;;;;12.57;9.07;;;13.60;58.80;;;14.33;34.96;101071.31;4892695;28;97713;-53
2022/03/13 06:20:17;;;;;;;12.60;9.23;;;13.60;58.10;;;14.22;36.33;101077.94;4892042;28;97587;-54
2022/03/13 06:22:46;;;;;;;10.03;8.03;;;13.50;60.30;;;14.17;33.08;101077.25;4900986;28;97260;-56
2022/03/13 06:25:14;;;;;;;10.90;9.43;;;13.40;59.30;;;14.02;33.31;101082.38;4895291;28;99888;-55
2022/03/13 06:27:40;;;;;;;9.70;8.47;;;13.30;59.60;;;13.98;36.96;101086.94;4902108;28;97253;-54
2022/03/13 06:30:14;;;;;;;9.27;7.67;;;13.20;61.30;;;13.99;37.54;101078.94;4892595;28;97205;-53
2022/03/13 06:32:44;;;;;;;13.87;9.37;;;13.30;66.20;;;14.04;33.61;101077.88;4880563;28;102954;-55
2022/03/13 06:35:12;;;;;;;12.70;10.60;;;13.40;61.20;;;13.95;33.14;101081.78;4869765;28;97308;-56
2022/03/13 06:37:39;;;;;;;14.13;10.10;;;13.20;59.20;;;13.89;32.87;101077.63;4895255;28;96873;-53
2022/03/13 06:40:09;;;;;;;12.63;9.17;;;13.20;57.90;;;13.92;35.64;101072.19;4877894;28;96983;-52
2022/03/13 06:42:36;;;;;;;11.80;9.17;;;13.30;61.30;;;13.92;30.41;101072.19;4899399;28;97929;-50
2022/03/13 06:45:03;;;;;;;12.43;9.47;;;13.30;59.50;;;13.88;34.11;101075.88;4899463;28;97225;-53
2022/03/13 06:47:29;;;;;;;12.10;9.57;;;13.30;57.50;;;13.86;35.30;101077.72;4894982;28;103204;-54
2022/03/13 06:49:55;;;;;;;8.67;7.77;;;13.20;58.30;;;13.84;35.65;101079.59;4897603;28;109648;-57
2022/03/13 06:52:21;;;;;;;12.03;7.60;;;13.20;60.60;;;13.97;35.67;101079.94;4894804;28;97737;-52
2022/03/13 06:54:52;;;;;;;11.97;8.97;;;13.40;58.90;;;13.88;30.18;101075.88;4904061;28;97006;-53
2022/03/13 06:57:20;;;;;;;9.70;7.00;;;13.30;57.30;;;13.88;31.41;101075.88;4891212;28;97170;-54
2022/03/13 06:59:47;;;;;;;6.53;5.90;;;13.30;58.60;;;14.09;37.31;101078.53;4872401;28;97261;-55
2022/03/13 07:02:17;;;;;;;5.60;4.90;;;13.60;72.50;;;14.17;37.14;101082.56;4889483;28;98213;-52
2022/03/13 07:04:43;;;;;;;10.30;7.97;;;13.70;66.60;;;14.16;30.61;101077.31;4902472;28;97584;-56
2022/03/13 07:07:08;;;;;;;11.77;7.77;;;13.80;57.10;;;14.21;35.33;101080.66;4882284;28;108206;-53
2022/03/13 07:09:42;;;;;;;11.17;9.33;;;13.70;57.30;;;14.26;36.05;101081.31;4896428;28;99704;-56
2022/03/13 07:12:11;;;;;;;11.47;9.27;;;13.70;60.60;;;14.23;30.96;101070.84;4878552;28;97671;-51
2022/03/13 07:14:44;;;;;;;10.23;8.77;;;13.70;58.40;;;14.29;35.47;101070.56;4902056;28;97258;-52
2022/03/13 07:17:10;;;;;;;7.67;6.57;;;13.70;57.50;;;14.33;35.99;101066.84;4897021;28;97058;-54
2022/03/13 07:19:35;;;;;;;10.63;7.83;;;13.80;64.40;;;14.38;35.60;101074.59;4902480;28;118093;-54
2022/03/13 07:22:01;;;;;;;7.33;6.63;;;13.90;63.20;;;14.45;34.08;101071.63;4895162;28;103659;-56
2022/03/13 07:24:27;;;;;;;10.13;8.23;;;14.00;58.80;;;14.47;34.12;101069.78;4903098;28;96887;-55
2022/03/13 07:26:53;;;;;;;9.63;8.17;;;14.00;60.40;;;14.59;35.37;101081.63;4901217;28;104086;-56
2022/03/13 07:29:19;;;;;;;6.47;5.87;;;14.10;60.90;;;14.64;35.69;101084.09;4907587;28;97746;-55
2022/03/13 07:31:44;;;;;;;6.83;6.13;;;14.20;64.90;;;14.72;35.65;101084.56;4912297;28;97389;-55
2022/03/13 07:34:10;;;;;;;5.53;4.67;;;14.40;64.10;;;14.84;34.61;101086.66;4895597;28;120964;-51
2022/03/13 07:36:37;;;;;;;5.00;4.50;;;14.60;65.00;;;15.02;35.98;101083.16;4898747;28;115447;-56
2022/03/13 07:39:03;;;;;;;4.67;4.03;;;14.90;71.10;;;15.21;36.07;101076.97;4897129;28;97154;-52
2022/03/13 07:41:29;;;;;;;5.73;4.80;;;15.20;70.20;;;15.38;35.46;101079.66;4900135;28;96978;-55
2022/03/13 07:43:56;;;;;;;9.10;7.63;;;15.50;68.20;;;15.48;34.03;101083.59;4895034;28;96800;-58
2022/03/13 07:46:23;;;;;;;6.23;5.57;;;15.60;62.50;;;15.61;34.60;101075.88;4897874;28;97220;-52
2022/03/13 07:48:49;;;;;;;4.77;4.27;;;15.60;64.70;;;15.72;35.15;101074.41;4885158;28;97002;-54
2022/03/13 07:51:17;;;;;;;6.60;5.90;;;15.80;68.40;;;15.81;34.88;101072.25;4897287;28;98272;-51
2022/03/13 07:53:43;;;;;;;4.93;4.43;;;15.90;66.70;;;15.80;34.63;101083.81;4891734;28;97040;-51
2022/03/13 07:56:09;;;;;;;7.03;6.33;;;15.80;66.10;;;15.89;34.37;101086.00;4896031;28;97534;-53
2022/03/13 07:58:35;;;;;;;7.40;5.00;;;15.80;64.70;;;15.95;34.42;101085.72;4899893;28;97248;-50
2022/03/13 08:01:01;;;;;;;9.97;7.90;;;16.00;66.70;;;15.94;33.68;101084.00;4898384;28;97018;-54
2022/03/13 08:03:37;;;;;;;5.27;4.63;;;15.90;61.90;;;16.00;34.35;101083.66;4899946;28;96855;-54
2022/03/13 08:06:03;;;;;;;4.73;4.10;;;15.90;67.40;;;16.04;34.11;101079.91;4888361;28;96749;-55
2022/03/13 08:08:31;;;;;;;5.37;4.10;;;16.00;65.00;;;16.06;33.50;101080.69;4887074;28;96504;-53
2022/03/13 08:10:57;;;;;;;5.03;4.37;;;16.00;61.30;;;16.08;34.23;101081.47;4884568;28;102520;-56
2022/03/13 08:13:23;;;;;;;6.40;4.70;;;16.00;66.10;;;16.09;33.73;101085.84;4893966;28;102736;-50
2022/03/13 08:15:49;;;;;;;7.50;6.20;;;16.10;63.80;;;16.06;32.39;101091.34;4901680;28;98602;-55
2022/03/13 08:18:16;;;;;;;9.00;7.73;;;16.00;57.80;;;16.07;30.90;101085.09;4895081;28;96894;-54
2022/03/13 08:20:42;;;;;;;4.80;4.37;;;16.00;59.30;;;16.04;33.71;101082.56;4901146;28;98491;-52
2022/03/13 08:23:08;;;;;;;4.67;4.27;;;15.90;63.30;;;16.01;34.25;101078.25;4894289;28;97251;-53
2022/03/13 08:25:34;;;;;;;9.53;7.83;;;15.90;67.30;;;15.99;32.83;101077.47;4884655;28;104105;-55
2022/03/13 08:28:01;;;;;;;4.87;4.37;;;15.90;58.80;;;15.97;34.05;101078.50;4886764;28;96909;-52
2022/03/13 08:30:27;;;;;;;6.03;5.53;;;15.80;64.70;;;16.02;33.21;101076.47;4891255;28;97608;-52
2022/03/13 08:32:54;;;;;;;6.43;5.73;;;15.90;61.20;;;16.03;32.12;101065.72;4898762;28;98957;-55
2022/03/13 08:35:20;;;;;;;5.60;4.40;;;16.00;62.30;;;16.05;34.12;101060.31;4886730;28;97178;-55
2022/03/13 08:37:46;;;;;;;3.70;3.40;;;16.00;66.50;;;16.09;34.23;101048.59;4900353;28;97367;-54
2022/03/13 08:40:12;;;;;;;8.47;7.63;;;16.10;67.00;;;16.05;32.87;101070.97;4904204;28;97086;-52
2022/03/13 08:42:38;;;;;;;10.10;8.30;;;16.00;57.90;;;15.96;28.17;101082.97;4897607;28;97134;-53
2022/03/13 08:45:05;;;;;;;8.90;6.97;;;15.80;56.40;;;15.90;29.92;101077.06;4886949;28;98918;-55
2022/03/13 08:47:31;;;;;;;4.47;3.73;;;15.70;58.60;;;15.96;34.23;101074.13;4892617;28;97222;-53
2022/03/13 08:49:57;;;;;;;6.13;4.40;;;15.80;66.70;;;15.98;33.92;101069.59;4886668;28;97371;-54
2022/03/13 08:52:23;;;;;;;9.37;7.73;;;15.90;64.10;;;15.99;31.76;101071.31;4876003;28;110909;-54
2022/03/13 08:54:49;;;;;;;4.67;3.90;;;16.00;58.20;;;15.96;33.72;101075.00;4892672;28;97295;-56
2022/03/13 08:57:16;;;;;;;4.80;4.30;;;15.90;62.30;;;15.98;34.28;101069.59;4895055;28;97210;-55
2022/03/13 08:59:42;;;;;;;6.77;5.90;;;15.90;65.90;;;16.05;33.97;101076.28;4887782;28;97552;-52
2022/03/13 09:02:09;;;;;;;9.97;8.93;;;16.00;66.80;;;16.09;30.24;101077.88;4866242;28;97731;-54
2022/03/13 09:04:35;;;;;;;5.63;4.50;;;16.10;57.30;;;16.06;33.24;101067.41;4903239;28;96534;-56
2022/03/13 09:07:01;;;;;;;4.30;3.90;;;16.00;59.40;;;16.11;33.81;101070.66;4894909;28;101946;-56
2022/03/13 09:09:27;;;;;;;11.43;8.67;;;16.00;65.70;;;16.05;31.00;101060.31;4901513;28;97320;-51
2022/03/13 09:11:53;;;;;;;9.80;8.33;;;15.90;56.40;;;16.00;32.21;101070.34;4899847;28;97023;-57
2022/03/13 09:14:20;;;;;;;6.87;5.50;;;15.80;58.30;;;15.99;33.53;101061.53;4897209;28;112356;-56
2022/03/13 09:16:47;;;;;;;13.47;10.37;;;15.80;62.80;;;15.97;27.80;101065.19;4899337;28;97556;-51
2022/03/13 09:19:13;;;;;;;8.40;7.47;;;15.80;56.10;;;15.93;33.05;101063.66;4891788;28;101173;-55
2022/03/13 09:21:49;;;;;;;12.40;9.57;;;15.70;58.20;;;15.98;31.42;101064.25;4897370;28;97230;-52
2022/03/13 09:24:25;;;;;;;14.13;10.40;;;15.80;56.70;;;15.92;32.97;101060.13;4894027;28;102977;-51
2022/03/13 09:26:51;;;;;;;8.23;7.20;;;15.70;60.50;;;15.90;33.50;101056.66;4896177;28;96877;-51
2022/03/13 09:29:20;;;;;;;12.27;8.70;;;15.70;61.40;;;15.89;28.29;101059.41;4897442;28;96820;-57
2022/03/13 09:31:46;;;;;;;5.90;5.20;;;15.70;57.10;;;15.92;33.88;101054.81;4880438;28;97266;-57
2022/03/13 09:34:12;;;;;;;10.37;8.70;;;15.70;62.90;;;15.90;33.43;101058.47;4889804;28;97085;-56
2022/03/13 09:36:37;;;;;;;5.40;4.83;;;15.70;58.00;;;15.91;34.06;101060.19;4898653;28;97395;-56
2022/03/13 09:39:07;;;;;;;15.27;11.00;;;15.70;65.90;;;15.86;29.39;101055.09;4892383;28;97523;-54
2022/03/13 09:41:34;;;;;;;9.47;7.13;;;15.70;55.70;;;15.90;33.76;101051.34;4901068;28;97076;-53
2022/03/13 09:43:59;;;;;;;10.80;8.67;;;15.70;61.50;;;15.93;33.42;101056.53;4893994;28;97036;-55
2022/03/13 09:46:25;;;;;;;5.93;4.93;;;15.80;62.00;;;16.00;34.06;101057.06;4898464;28;97434;-55
2022/03/13 09:48:58;;;;;;;5.97;4.97;;;15.90;65.10;;;15.98;33.80;101053.63;4898987;28;98463;-56
2022/03/13 09:51:24;;;;;;;9.47;7.67;;;15.90;63.90;;;16.06;32.94;101065.59;4878942;28;101249;-57
2022/03/13 09:53:53;;;;;;;7.77;6.97;;;16.00;61.80;;;16.05;33.05;101055.00;4898693;28;105084;-57
2022/03/13 09:56:19;;;;;;;4.93;4.43;;;16.00;60.90;;;16.10;33.23;101058.31;4895213;28;97447;-56
2022/03/13 09:58:46;;;;;;;6.03;4.20;;;16.10;64.20;;;16.17;33.99;101043.72;4896124;28;97372;-58
2022/03/13 10:01:12;;;;;;;13.43;11.67;;;16.30;66.00;;;16.23;29.68;101048.75;4896403;28;97600;-58
2022/03/13 10:03:39;;;;;;;13.47;11.37;;;16.30;57.50;;;16.24;28.14;101044.28;4890008;28;97384;-55
2022/03/13 10:06:13;;;;;;;6.10;5.47;;;16.30;56.60;;;16.29;32.18;101044.88;4896551;28;97374;-55
2022/03/13 10:08:39;;;;;;;5.70;4.60;;;16.30;63.30;;;16.28;33.78;101049.34;4901308;28;98294;-53